createdAt,value
2018-08-12T00:00:16.514Z,17.36
2018-08-12T00:02:45.758Z,17.34
2018-08-12T00:05:14.647Z,17.31
2018-08-12T00:07:43.549Z,17.16
2018-08-12T00:10:12.903Z,17.22
2018-08-12T00:12:42.106Z,17.22
2018-08-12T00:15:14.252Z,17.18
2018-08-12T00:17:43.377Z,17.15
2018-08-12T00:20:15.205Z,17.10
2018-08-12T00:22:44.454Z,17.05
2018-08-12T00:25:15.197Z,17.00
2018-08-12T00:27:43.981Z,16.96
2018-08-12T00:30:14.310Z,16.95
2018-08-12T00:32:43.312Z,16.94
2018-08-12T00:35:13.609Z,16.87
2018-08-12T00:37:42.621Z,16.85
2018-08-12T00:40:13.753Z,16.79
2018-08-12T00:42:42.755Z,16.80
2018-08-12T00:45:14.105Z,16.68
2018-08-12T00:47:43.067Z,16.69
2018-08-12T00:50:12.781Z,16.58
2018-08-12T00:52:41.832Z,16.53
2018-08-12T00:55:13.030Z,16.38
2018-08-12T00:57:43.485Z,16.35
2018-08-12T01:00:14.585Z,16.37
2018-08-12T01:02:43.270Z,16.45
2018-08-12T01:05:15.197Z,16.38
2018-08-12T01:07:46.105Z,16.36
2018-08-12T01:10:15.298Z,16.31
2018-08-12T01:12:44.123Z,16.31
2018-08-12T01:15:16.086Z,16.32
2018-08-12T01:17:45.342Z,16.29
2018-08-12T01:20:20.867Z,16.26
2018-08-12T01:22:49.731Z,16.20
2018-08-12T01:25:18.728Z,16.17
2018-08-12T01:27:47.692Z,16.17
2018-08-12T01:30:18.989Z,16.10
2018-08-12T01:32:48.961Z,15.97
2018-08-12T01:35:18.080Z,16.01
2018-08-12T01:37:47.839Z,16.01
2018-08-12T01:40:17.424Z,16.07
2018-08-12T01:42:46.653Z,16.04
2018-08-12T01:45:17.210Z,15.95
2018-08-12T01:47:46.881Z,15.96
2018-08-12T01:50:17.009Z,15.84
2018-08-12T01:52:46.029Z,15.78
2018-08-12T01:55:15.195Z,15.82
2018-08-12T01:57:44.019Z,15.80
2018-08-12T02:00:15.638Z,15.72
2018-08-12T02:02:44.957Z,15.64
2018-08-12T02:05:14.107Z,15.68
2018-08-12T02:07:43.344Z,15.65
2018-08-12T02:10:12.406Z,15.56
2018-08-12T02:12:41.441Z,15.45
2018-08-12T02:15:11.580Z,15.47
2018-08-12T02:17:40.885Z,15.49
2018-08-12T02:20:10.569Z,15.56
2018-08-12T02:22:40.117Z,15.53
2018-08-12T02:25:09.493Z,15.49
2018-08-12T02:27:38.327Z,15.48
2018-08-12T02:30:08.639Z,15.50
2018-08-12T02:32:37.503Z,15.47
2018-08-12T02:35:07.019Z,15.44
2018-08-12T02:37:35.808Z,15.46
2018-08-12T02:40:05.819Z,15.39
2018-08-12T02:42:34.817Z,15.39
2018-08-12T02:45:03.617Z,15.29
2018-08-12T02:47:32.396Z,15.14
2018-08-12T02:50:01.200Z,15.03
2018-08-12T02:52:29.956Z,15.12
2018-08-12T02:54:58.734Z,15.12
2018-08-12T02:57:27.601Z,15.13
2018-08-12T02:59:56.441Z,15.14
2018-08-12T03:02:25.225Z,15.10
2018-08-12T03:04:54.073Z,15.15
2018-08-12T03:07:22.766Z,15.13
2018-08-12T03:09:51.456Z,15.09
2018-08-12T03:12:20.318Z,15.10
2018-08-12T03:14:48.948Z,15.13
2018-08-12T03:17:17.709Z,15.10
2018-08-12T03:19:46.403Z,15.12
2018-08-12T03:22:15.193Z,15.07
2018-08-12T03:24:43.885Z,15.06
2018-08-12T03:27:12.707Z,15.02
2018-08-12T03:29:41.485Z,14.92
2018-08-12T03:32:10.242Z,14.90
2018-08-12T03:34:39.075Z,14.91
2018-08-12T03:37:08.063Z,14.95
2018-08-12T03:39:36.813Z,14.92
2018-08-12T03:42:05.972Z,14.92
2018-08-12T03:44:35.333Z,14.86
2018-08-12T03:47:04.073Z,14.89
2018-08-12T03:49:32.845Z,14.92
2018-08-12T03:52:01.686Z,14.85
2018-08-12T03:54:30.524Z,14.88
2018-08-12T03:56:59.208Z,14.89
2018-08-12T03:59:27.965Z,14.86
2018-08-12T04:01:57.042Z,14.86
2018-08-12T04:04:25.891Z,14.84
2018-08-12T04:06:54.896Z,14.84
2018-08-12T04:09:23.676Z,14.81
2018-08-12T04:11:52.402Z,14.78
2018-08-12T04:14:21.117Z,14.81
2018-08-12T04:16:57.884Z,14.81
2018-08-12T04:19:26.928Z,14.76
2018-08-12T04:21:55.977Z,14.79
2018-08-12T04:24:25.497Z,14.82
2018-08-12T04:26:54.255Z,14.82
2018-08-12T04:29:23.157Z,14.81
2018-08-12T04:31:51.948Z,14.87
2018-08-12T04:34:21.074Z,14.88
2018-08-12T04:36:49.834Z,14.86
2018-08-12T04:39:18.505Z,14.81
2018-08-12T04:41:47.313Z,14.82
2018-08-12T04:44:16.045Z,14.86
2018-08-12T04:46:45.122Z,14.89
2018-08-12T04:49:13.896Z,14.95
2018-08-12T04:51:42.917Z,14.98
2018-08-12T04:54:11.838Z,15.07
2018-08-12T04:56:40.813Z,15.11
2018-08-12T04:59:09.645Z,15.13
2018-08-12T05:01:38.482Z,15.05
2018-08-12T05:04:07.751Z,15.01
2018-08-12T05:06:36.455Z,15.06
2018-08-12T05:09:08.793Z,15.18
2018-08-12T05:11:38.138Z,15.26
2018-08-12T05:14:07.133Z,15.36
2018-08-12T05:16:35.887Z,15.49
2018-08-12T05:19:05.026Z,15.53
2018-08-12T05:21:33.812Z,15.60
2018-08-12T05:24:02.875Z,15.67
2018-08-12T05:26:31.692Z,15.72
2018-08-12T05:29:00.450Z,15.72
2018-08-12T05:31:29.471Z,15.67
2018-08-12T05:33:58.544Z,15.73
2018-08-12T05:36:27.349Z,15.80
2018-08-12T05:38:56.159Z,15.83
2018-08-12T05:41:24.856Z,15.91
2018-08-12T05:43:53.735Z,15.97
2018-08-12T05:46:22.610Z,16.09
2018-08-12T05:48:51.334Z,16.23
2018-08-12T05:51:20.277Z,16.31
2018-08-12T05:53:51.865Z,16.35
2018-08-12T05:56:20.813Z,16.39
2018-08-12T05:58:49.585Z,16.49
2018-08-12T06:01:18.380Z,16.61
2018-08-12T06:03:47.191Z,16.74
2018-08-12T06:06:15.961Z,16.82
2018-08-12T06:08:44.679Z,16.78
2018-08-12T06:11:13.496Z,16.87
2018-08-12T06:13:42.380Z,17.03
2018-08-12T06:16:11.454Z,17.15
2018-08-12T06:18:40.319Z,17.05
2018-08-12T06:21:09.446Z,17.28
2018-08-12T06:23:38.135Z,17.42
2018-08-12T06:26:07.416Z,17.53
2018-08-12T06:28:36.107Z,17.68
2018-08-12T06:31:04.992Z,17.72
2018-08-12T06:33:34.011Z,17.84
2018-08-12T06:36:02.904Z,17.93
2018-08-12T06:38:31.707Z,17.99
2018-08-12T06:41:00.402Z,18.18
2018-08-12T06:43:29.297Z,18.31
2018-08-12T06:45:58.464Z,18.46
2018-08-12T06:48:27.277Z,18.45
2018-08-12T06:50:56.166Z,18.59
2018-08-12T06:53:24.981Z,18.79
2018-08-12T06:55:53.830Z,18.87
2018-08-12T06:58:22.901Z,19.04
2018-08-12T07:00:51.638Z,19.11
2018-08-12T07:03:21.078Z,19.26
2018-08-12T07:05:50.152Z,19.36
2018-08-12T07:08:18.834Z,19.44
2018-08-12T07:10:47.739Z,19.60
2018-08-12T07:13:16.480Z,19.83
2018-08-12T07:15:45.187Z,19.90
2018-08-12T07:18:14.081Z,20.09
2018-08-12T07:20:42.871Z,20.25
2018-08-12T07:23:11.607Z,19.96
2018-08-12T07:25:40.510Z,20.13
2018-08-12T07:28:09.307Z,20.21
2018-08-12T07:30:38.115Z,20.32
2018-08-12T07:33:06.832Z,20.45
2018-08-12T07:35:35.567Z,20.43
2018-08-12T07:38:04.560Z,20.57
2018-08-12T07:40:33.500Z,20.77
2018-08-12T07:43:02.221Z,20.85
2018-08-12T07:45:31.075Z,20.95
2018-08-12T07:47:59.824Z,21.15
2018-08-12T07:50:28.501Z,21.17
2018-08-12T07:52:57.306Z,21.31
2018-08-12T07:55:26.201Z,21.52
2018-08-12T07:57:55.091Z,21.53
2018-08-12T08:00:24.107Z,21.56
2018-08-12T08:02:52.841Z,21.65
2018-08-12T08:05:21.681Z,21.82
2018-08-12T08:07:50.560Z,21.92
2018-08-12T08:10:19.835Z,22.05
2018-08-12T08:12:48.544Z,22.18
2018-08-12T08:15:19.097Z,22.25
2018-08-12T08:17:48.218Z,22.34
2018-08-12T08:20:17.321Z,22.42
2018-08-12T08:22:46.659Z,22.54
2018-08-12T08:25:15.705Z,22.66
2018-08-12T08:27:44.417Z,22.73
2018-08-12T08:30:14.927Z,22.79
2018-08-12T08:32:44.213Z,23.07
2018-08-12T08:35:14.190Z,23.22
2018-08-12T08:37:43.718Z,23.21
2018-08-12T08:40:15.487Z,23.40
2018-08-12T08:42:44.437Z,23.53
2018-08-12T08:45:16.792Z,23.38
2018-08-12T08:47:46.821Z,23.55
2018-08-12T08:50:16.830Z,23.59
2018-08-12T08:52:45.831Z,23.41
2018-08-12T08:55:15.474Z,23.52
2018-08-12T08:57:44.878Z,23.75
2018-08-12T09:00:15.833Z,23.87
2018-08-12T09:02:47.550Z,23.90
2018-08-12T09:05:17.745Z,23.95
2018-08-12T09:07:47.508Z,24.11
2018-08-12T09:10:17.633Z,24.32
2018-08-12T09:12:46.436Z,24.46
2018-08-12T09:15:17.247Z,24.35
2018-08-12T09:17:46.961Z,24.54
2018-08-12T09:20:17.154Z,24.65
2018-08-12T09:22:46.021Z,24.73
2018-08-12T09:25:15.506Z,24.85
2018-08-12T09:27:44.377Z,24.98
2018-08-12T09:30:16.616Z,25.03
2018-08-12T09:32:46.297Z,25.15
2018-08-12T09:35:15.137Z,25.18
2018-08-12T09:37:44.561Z,25.33
2018-08-12T09:40:15.599Z,25.58
2018-08-12T09:42:45.806Z,25.82
2018-08-12T09:45:17.576Z,26.08
2018-08-12T09:47:46.906Z,26.11
2018-08-12T09:50:17.090Z,25.89
2018-08-12T09:52:46.501Z,25.89
2018-08-12T09:55:16.118Z,25.90
2018-08-12T09:57:44.876Z,25.44
2018-08-12T10:00:22.139Z,25.18
2018-08-12T10:02:52.569Z,24.89
2018-08-12T10:05:21.715Z,25.32
2018-08-12T10:07:50.481Z,25.44
2018-08-12T10:10:19.947Z,25.48
2018-08-12T10:12:49.111Z,25.76
2018-08-12T10:15:18.287Z,24.84
2018-08-12T10:17:50.369Z,25.30
2018-08-12T10:20:19.165Z,25.43
2018-08-12T10:22:48.043Z,25.47
2018-08-12T10:25:17.143Z,25.51
2018-08-12T10:27:46.630Z,25.66
2018-08-12T10:30:16.801Z,25.83
2018-08-12T10:32:45.950Z,25.78
2018-08-12T10:35:17.930Z,25.60
2018-08-12T10:37:46.925Z,25.76
2018-08-12T10:40:18.081Z,25.73
2018-08-12T10:42:47.865Z,25.88
2018-08-12T10:45:17.184Z,26.05
2018-08-12T10:47:46.804Z,26.19
2018-08-12T10:50:18.654Z,26.00
2018-08-12T10:52:48.385Z,25.94
2018-08-12T10:55:19.091Z,26.13
2018-08-12T10:57:48.814Z,26.06
2018-08-12T11:00:22.501Z,26.19
2018-08-12T11:02:51.662Z,26.25
2018-08-12T11:05:20.561Z,26.24
2018-08-12T11:07:54.057Z,26.22
2018-08-12T11:10:23.158Z,26.41
2018-08-12T11:12:52.154Z,26.56
2018-08-12T11:15:20.976Z,26.73
2018-08-12T11:17:49.642Z,26.87
2018-08-12T11:20:18.594Z,26.96
2018-08-12T11:22:47.413Z,26.90
2018-08-12T11:25:16.716Z,26.81
2018-08-12T11:27:45.649Z,26.89
2018-08-12T11:30:16.492Z,26.60
2018-08-12T11:32:45.734Z,26.81
2018-08-12T11:35:16.435Z,27.02
2018-08-12T11:37:46.137Z,27.19
2018-08-12T11:40:15.886Z,27.25
2018-08-12T11:42:44.658Z,27.31
2018-08-12T11:45:15.720Z,27.53
2018-08-12T11:47:45.590Z,27.90
2018-08-12T11:50:15.166Z,28.04
2018-08-12T11:52:45.009Z,28.36
2018-08-12T11:55:17.664Z,28.37
2018-08-12T11:57:46.805Z,28.80
2018-08-12T12:00:17.855Z,29.54
2018-08-12T12:02:48.365Z,30.09
2018-08-12T12:05:17.560Z,30.34
2018-08-12T12:07:46.501Z,30.70
2018-08-12T12:10:19.726Z,31.65
2018-08-12T12:12:49.533Z,32.09
2018-08-12T12:15:18.374Z,31.84
2018-08-12T12:17:48.056Z,31.76
2018-08-12T12:20:17.841Z,32.48
2018-08-12T12:22:47.371Z,33.20
2018-08-12T12:25:17.946Z,33.28
2018-08-12T12:27:47.106Z,33.80
2018-08-12T12:30:17.634Z,34.51
2018-08-12T12:32:47.241Z,35.52
2018-08-12T12:35:16.874Z,36.04
2018-08-12T12:37:45.963Z,36.49
2018-08-12T12:40:16.483Z,36.73
2018-08-12T12:42:45.994Z,37.65
2018-08-12T12:45:15.556Z,38.02
2018-08-12T12:47:44.701Z,38.80
2018-08-12T12:50:18.161Z,36.47
2018-08-12T12:52:49.415Z,35.52
2018-08-12T12:55:19.252Z,34.93
2018-08-12T12:57:48.305Z,36.61
2018-08-12T13:00:18.573Z,37.90
2018-08-12T13:02:47.647Z,39.18
2018-08-12T13:05:18.012Z,38.49
2018-08-12T13:07:47.890Z,38.22
2018-08-12T13:10:17.683Z,38.52
2018-08-12T13:12:46.609Z,39.97
2018-08-12T13:15:16.388Z,40.45
2018-08-12T13:17:45.749Z,40.89
2018-08-12T13:20:17.038Z,41.08
2018-08-12T13:22:46.996Z,40.01
2018-08-12T13:25:17.597Z,40.34
2018-08-12T13:27:46.730Z,40.16
2018-08-12T13:30:16.847Z,40.68
2018-08-12T13:32:46.639Z,40.47
2018-08-12T13:35:15.401Z,39.39
2018-08-12T13:37:44.330Z,38.43
2018-08-12T13:40:14.814Z,38.61
2018-08-12T13:42:44.453Z,39.07
2018-08-12T13:45:14.125Z,39.83
2018-08-12T13:47:44.273Z,39.37
2018-08-12T13:50:19.471Z,40.30
2018-08-12T13:52:49.472Z,41.75
2018-08-12T13:55:18.990Z,41.93
2018-08-12T13:57:49.116Z,40.46
2018-08-12T14:00:20.787Z,40.84
2018-08-12T14:02:49.734Z,41.64
2018-08-12T14:05:19.516Z,40.66
2018-08-12T14:07:49.055Z,40.00
2018-08-12T14:10:19.099Z,37.80
2018-08-12T14:12:47.881Z,36.99
2018-08-12T14:15:18.990Z,35.27
2018-08-12T14:17:48.826Z,34.36
2018-08-12T14:20:18.824Z,33.95
2018-08-12T14:22:47.498Z,33.60
2018-08-12T14:25:16.264Z,33.45
2018-08-12T14:27:45.481Z,33.05
2018-08-12T14:30:17.389Z,32.66
2018-08-12T14:32:47.053Z,31.81
2018-08-12T14:35:16.139Z,31.65
2018-08-12T14:37:45.439Z,31.00
2018-08-12T14:40:15.253Z,31.02
2018-08-12T14:42:44.641Z,30.81
2018-08-12T14:45:14.600Z,30.67
2018-08-12T14:47:43.692Z,30.84
2018-08-12T14:50:14.438Z,30.86
2018-08-12T14:52:43.629Z,30.71
2018-08-12T14:55:14.588Z,30.90
2018-08-12T14:57:43.947Z,30.95
2018-08-12T15:00:17.780Z,31.03
2018-08-12T15:02:48.690Z,30.75
2018-08-12T15:05:18.401Z,30.67
2018-08-12T15:07:47.137Z,30.94
2018-08-12T15:10:16.066Z,30.87
2018-08-12T15:12:45.076Z,30.79
2018-08-12T15:15:15.262Z,30.84
2018-08-12T15:17:44.889Z,30.49
2018-08-12T15:20:14.976Z,30.36
2018-08-12T15:22:43.874Z,30.47
2018-08-12T15:25:15.807Z,30.66
2018-08-12T15:27:45.063Z,30.97
2018-08-12T15:30:13.878Z,30.91
2018-08-12T15:32:42.574Z,30.81
2018-08-12T15:35:11.662Z,30.90
2018-08-12T15:37:40.537Z,31.51
2018-08-12T15:40:11.328Z,31.57
2018-08-12T15:42:40.749Z,31.15
2018-08-12T15:45:11.737Z,31.08
2018-08-12T15:47:41.219Z,31.08
2018-08-12T15:50:11.088Z,30.86
2018-08-12T15:52:41.285Z,30.82
2018-08-12T15:55:10.679Z,30.88
2018-08-12T15:57:39.654Z,30.41
2018-08-12T16:00:18.559Z,30.60
2018-08-12T16:02:47.479Z,30.51
2018-08-12T16:05:16.818Z,30.23
2018-08-12T16:07:47.574Z,30.10
2018-08-12T16:10:19.252Z,30.11
2018-08-12T16:12:49.507Z,30.18
2018-08-12T16:15:18.529Z,30.03
2018-08-12T16:17:47.518Z,29.74
2018-08-12T16:20:16.336Z,29.59
2018-08-12T16:22:45.400Z,29.67
2018-08-12T16:25:17.622Z,29.79
2018-08-12T16:27:46.547Z,29.95
2018-08-12T16:30:17.321Z,29.80
2018-08-12T16:32:46.144Z,29.64
2018-08-12T16:35:16.358Z,29.52
2018-08-12T16:37:45.913Z,29.49
2018-08-12T16:40:17.507Z,29.28
2018-08-12T16:42:46.849Z,29.24
2018-08-12T16:45:16.397Z,29.14
2018-08-12T16:47:45.696Z,29.16
2018-08-12T16:50:14.664Z,29.27
2018-08-12T16:52:43.985Z,29.33
2018-08-12T16:55:15.918Z,29.33
2018-08-12T16:57:45.717Z,29.25
2018-08-12T17:00:19.187Z,29.20
2018-08-12T17:02:48.252Z,29.27
2018-08-12T17:05:18.381Z,29.43
2018-08-12T17:07:47.262Z,29.61
2018-08-12T17:10:17.281Z,29.67
2018-08-12T17:12:46.183Z,29.57
2018-08-12T17:15:18.056Z,29.62
2018-08-12T17:17:47.454Z,29.63
2018-08-12T17:20:17.733Z,29.54
2018-08-12T17:22:46.955Z,29.75
2018-08-12T17:25:15.686Z,29.77
2018-08-12T17:27:44.572Z,29.81
2018-08-12T17:30:14.993Z,29.76
2018-08-12T17:32:44.175Z,29.85
2018-08-12T17:35:13.265Z,29.85
2018-08-12T17:37:44.169Z,29.72
2018-08-12T17:40:14.273Z,29.69
2018-08-12T17:42:43.157Z,29.39
2018-08-12T17:45:13.555Z,29.32
2018-08-12T17:47:43.123Z,29.20
2018-08-12T17:50:13.730Z,28.97
2018-08-12T17:52:42.609Z,29.01
2018-08-12T17:55:11.635Z,28.88
2018-08-12T17:57:40.386Z,28.82
2018-08-12T18:00:12.195Z,28.66
2018-08-12T18:02:41.260Z,28.50
2018-08-12T18:05:10.395Z,28.35
2018-08-12T18:07:39.994Z,28.31
2018-08-12T18:10:08.869Z,28.21
2018-08-12T18:12:37.977Z,28.13
2018-08-12T18:15:07.938Z,28.06
2018-08-12T18:17:36.771Z,27.96
2018-08-12T18:20:05.925Z,27.88
2018-08-12T18:22:35.251Z,27.74
2018-08-12T18:25:04.873Z,27.57
2018-08-12T18:27:33.902Z,27.42
2018-08-12T18:30:02.785Z,27.30
2018-08-12T18:32:31.548Z,27.11
2018-08-12T18:35:00.746Z,26.95
2018-08-12T18:37:29.454Z,26.78
2018-08-12T18:39:59.862Z,26.62
2018-08-12T18:42:28.682Z,26.46
2018-08-12T18:44:57.663Z,26.32
2018-08-12T18:47:26.504Z,26.25
2018-08-12T18:49:55.358Z,26.10
2018-08-12T18:52:24.205Z,25.98
2018-08-12T18:54:53.481Z,25.86
2018-08-12T18:57:22.251Z,25.76
2018-08-12T18:59:51.041Z,25.68
2018-08-12T19:02:19.879Z,25.56
2018-08-12T19:04:48.627Z,25.49
2018-08-12T19:07:17.373Z,25.36
2018-08-12T19:09:46.241Z,25.25
2018-08-12T19:12:15.137Z,25.17
2018-08-12T19:14:44.302Z,25.10
2018-08-12T19:17:13.080Z,24.99
2018-08-12T19:19:41.966Z,24.88
2018-08-12T19:22:10.750Z,24.82
2018-08-12T19:24:39.629Z,24.71
2018-08-12T19:27:08.492Z,24.65
2018-08-12T19:29:37.499Z,24.61
2018-08-12T19:32:06.491Z,24.55
2018-08-12T19:34:35.418Z,24.50
2018-08-12T19:37:04.489Z,24.47
2018-08-12T19:39:33.486Z,24.39
2018-08-12T19:42:02.378Z,24.34
2018-08-12T19:44:31.192Z,24.30
2018-08-12T19:47:00.185Z,24.23
2018-08-12T19:49:28.951Z,24.18
2018-08-12T19:51:57.747Z,24.11
2018-08-12T19:54:27.158Z,24.03
2018-08-12T19:56:55.873Z,23.90
2018-08-12T19:59:24.728Z,23.84
2018-08-12T20:01:53.648Z,23.75
2018-08-12T20:04:22.546Z,23.65
2018-08-12T20:06:51.521Z,23.65
2018-08-12T20:09:20.262Z,23.64
2018-08-12T20:11:49.070Z,23.58
2018-08-12T20:14:17.902Z,23.54
2018-08-12T20:16:46.617Z,23.49
2018-08-12T20:19:15.683Z,23.45
2018-08-12T20:21:44.403Z,23.39
2018-08-12T20:24:13.062Z,23.36
2018-08-12T20:26:41.865Z,23.31
2018-08-12T20:29:10.550Z,23.21
2018-08-12T20:31:39.404Z,23.16
2018-08-12T20:34:08.181Z,23.12
2018-08-12T20:36:36.946Z,23.05
2018-08-12T20:39:09.975Z,23.02
2018-08-12T20:41:38.927Z,22.88
2018-08-12T20:44:07.801Z,22.85
2018-08-12T20:46:36.718Z,22.78
2018-08-12T20:49:05.529Z,22.72
2018-08-12T20:51:34.368Z,22.68
2018-08-12T20:54:03.261Z,22.63
2018-08-12T20:56:32.212Z,22.60
2018-08-12T20:59:00.887Z,22.56
2018-08-12T21:01:29.716Z,22.54
2018-08-12T21:03:58.761Z,22.52
2018-08-12T21:06:27.568Z,22.42
2018-08-12T21:08:56.335Z,22.37
2018-08-12T21:11:25.046Z,22.33
2018-08-12T21:13:53.892Z,22.20
2018-08-12T21:16:22.985Z,22.18
2018-08-12T21:18:51.706Z,22.07
2018-08-12T21:21:20.786Z,22.03
2018-08-12T21:23:49.613Z,22.00
2018-08-12T21:26:18.410Z,21.94
2018-08-12T21:28:47.193Z,21.89
2018-08-12T21:31:15.997Z,21.81
2018-08-12T21:33:44.887Z,21.78
2018-08-12T21:36:13.862Z,21.78
2018-08-12T21:38:42.641Z,21.72
2018-08-12T21:41:11.911Z,21.67
2018-08-12T21:43:40.706Z,21.64
2018-08-12T21:46:11.421Z,21.59
2018-08-12T21:48:40.686Z,21.51
2018-08-12T21:51:09.727Z,21.50
2018-08-12T21:53:38.549Z,21.48
2018-08-12T21:56:07.411Z,21.50
2018-08-12T21:58:36.242Z,21.55
2018-08-12T22:01:05.050Z,21.55
2018-08-12T22:03:33.947Z,21.56
2018-08-12T22:06:02.683Z,21.56
2018-08-12T22:08:31.337Z,21.56
2018-08-12T22:11:00.429Z,21.50
2018-08-12T22:13:29.257Z,21.38
2018-08-12T22:15:58.153Z,21.38
2018-08-12T22:18:26.925Z,21.31
2018-08-12T22:20:55.802Z,21.30
2018-08-12T22:23:24.755Z,21.26
2018-08-12T22:25:53.517Z,21.20
2018-08-12T22:28:22.289Z,21.21
2018-08-12T22:30:51.306Z,21.18
2018-08-12T22:33:20.076Z,21.14
2018-08-12T22:35:48.849Z,21.12
2018-08-12T22:38:17.801Z,21.10
2018-08-12T22:40:46.583Z,21.09
2018-08-12T22:43:15.396Z,21.09
2018-08-12T22:45:44.201Z,20.99
2018-08-12T22:48:13.039Z,20.95
2018-08-12T22:50:41.938Z,20.91
2018-08-12T22:53:10.732Z,20.88
2018-08-12T22:55:39.512Z,20.78
2018-08-12T22:58:08.311Z,20.77
2018-08-12T23:00:37.597Z,20.74
2018-08-12T23:03:07.653Z,21.06
2018-08-12T23:05:36.425Z,21.16
2018-08-12T23:08:09.213Z,21.00
2018-08-12T23:10:38.858Z,20.83
2018-08-12T23:13:08.218Z,20.75
2018-08-12T23:16:17.705Z,20.75
2018-08-12T23:18:46.569Z,20.75
2018-08-12T23:21:16.673Z,20.75
2018-08-12T23:23:49.901Z,20.82
2018-08-12T23:26:22.053Z,20.72
2018-08-12T23:28:51.174Z,20.67
2018-08-12T23:31:20.048Z,20.68
2018-08-12T23:33:48.713Z,20.63
2018-08-12T23:36:17.573Z,20.70
2018-08-12T23:38:46.242Z,20.69
2018-08-12T23:41:15.009Z,20.73
2018-08-12T23:43:43.725Z,20.75
2018-08-12T23:46:12.829Z,20.80
2018-08-12T23:48:41.676Z,20.81
2018-08-12T23:51:10.433Z,20.80
2018-08-12T23:53:39.606Z,20.95
2018-08-12T23:56:08.427Z,20.85
2018-08-12T23:58:37.293Z,20.73
